Time;durP1;ratioP1;P1;durP2;ratioP2;P2;SDS_P1;SDS_P2;PMS_P1;PMS_P2;Temp;Humidity;BMP_temperature;BMP_pressure;BME280_temperature;BME280_humidity;BME280_pressure;Samples;Min_cycle;Max_cycle;Signal;HPM_P1;HPM_P2
2022/03/09 00:01:02;;;;;;;;;;;8.50;99.90;;;;;;4913846;29;19927;-83
2022/03/09 00:03:31;;;;;;;;;;;8.50;99.90;;;;;;4928926;29;19927;-82
2022/03/09 00:05:59;;;;;;;;;;;8.60;99.90;;;;;;4930553;29;19996;-83
2022/03/09 00:08:28;;;;;;;;;;;8.40;99.90;;;;;;4929976;29;19938;-82
2022/03/09 00:10:58;;;;;;;;;;;8.50;99.90;;;;;;4931673;29;19927;-83
2022/03/09 00:13:25;;;;;;;;;;;8.50;99.90;;;;;;4950496;29;19931;-81
2022/03/09 00:15:53;;;;;;;;;;;8.40;99.90;;;;;;4915068;29;20447;-81
2022/03/09 00:18:22;;;;;;;;;;;8.50;99.90;;;;;;4920647;29;20001;-81
2022/03/09 00:20:50;;;;;;;;;;;8.50;99.90;;;;;;4925590;29;19928;-81
2022/03/09 00:23:18;;;;;;;;;;;8.50;99.90;;;;;;4927895;29;19934;-81
2022/03/09 00:25:46;;;;;;;;;;;8.50;99.90;;;;;;4929479;29;20013;-80
2022/03/09 00:28:14;;;;;;;;;;;8.50;99.90;;;;;;4936895;29;19923;-80
2022/03/09 00:30:42;;;;;;;;;;;8.60;99.90;;;;;;4933410;29;19934;-81
2022/03/09 00:33:11;;;;;;;;;;;8.60;99.90;;;;;;4924731;29;19927;-82
2022/03/09 00:35:39;;;;;;;;;;;8.60;99.90;;;;;;4892957;29;19931;-82
2022/03/09 00:38:08;;;;;;;;;;;8.80;99.90;;;;;;4939719;29;20038;-81
2022/03/09 00:40:36;;;;;;;;;;;9.60;99.90;;;;;;4924960;29;19927;-81
2022/03/09 00:43:05;;;;;;;;;;;8.70;99.90;;;;;;4909675;29;19951;-82
2022/03/09 00:45:36;;;;;;;;;;;8.60;99.90;;;;;;4917321;29;20078;-81
2022/03/09 00:48:04;;;;;;;;;;;8.90;99.90;;;;;;4913163;29;20271;-82
2022/03/09 00:50:34;;;;;;;;;;;8.70;99.90;;;;;;4927599;29;19937;-81
2022/03/09 00:53:02;;;;;;;;;;;8.80;99.90;;;;;;4927290;29;19931;-82
2022/03/09 00:55:32;;;;;;;;;;;8.80;99.90;;;;;;4934287;29;19942;-81
2022/03/09 00:58:00;;;;;;;;;;;8.80;99.90;;;;;;4930723;29;19931;-82
2022/03/09 01:00:28;;;;;;;;;;;8.70;99.90;;;;;;4911647;29;19931;-81
2022/03/09 01:02:57;;;;;;;;;;;8.90;99.90;;;;;;4931043;29;19935;-81
2022/03/09 01:05:26;;;;;;;;;;;8.90;99.90;;;;;;4943863;29;19937;-82
2022/03/09 01:07:54;;;;;;;;;;;8.90;99.90;;;;;;4928174;29;20639;-81
2022/03/09 01:10:22;;;;;;;;;;;8.90;99.90;;;;;;4905017;29;19941;-81
2022/03/09 01:12:51;;;;;;;;;;;8.90;99.90;;;;;;4927825;29;19927;-82
2022/03/09 01:15:19;;;;;;;;;;;8.90;99.90;;;;;;4928582;29;19927;-82
2022/03/09 01:17:48;;;;;;;;;;;8.90;99.90;;;;;;4926820;29;19931;-82
2022/03/09 01:20:16;;;;;;;;;;;8.90;99.90;;;;;;4927350;29;20003;-81
2022/03/09 01:22:47;;;;;;;;;;;8.90;99.90;;;;;;4929228;29;19950;-83
2022/03/09 01:25:16;;;;;;;;;;;7.50;99.90;;;;;;4913084;29;20456;-82
2022/03/09 01:27:47;;;;;;;;;;;8.90;99.90;;;;;;4912215;29;19928;-82
2022/03/09 01:30:15;;;;;;;;;;;8.90;99.90;;;;;;4911555;29;20127;-82
2022/03/09 01:32:43;;;;;;;;;;;8.90;99.90;;;;;;4926685;29;19934;-82
2022/03/09 01:35:11;;;;;;;;;;;8.90;99.90;;;;;;4926440;29;19927;-82
2022/03/09 01:37:40;;;;;;;;;;;8.90;99.90;;;;;;4927670;29;19934;-82
2022/03/09 01:40:09;;;;;;;;;;;8.90;99.90;;;;;;4910843;29;20445;-82
2022/03/09 01:42:38;;;;;;;;;;;7.90;99.90;;;;;;4925444;29;19942;-82
2022/03/09 01:45:10;;;;;;;;;;;9.00;99.90;;;;;;4927217;29;19942;-78
2022/03/09 01:47:38;;;;;;;;;;;8.90;99.90;;;;;;4925796;29;19931;-82
2022/03/09 01:50:08;;;;;;;;;;;9.00;99.90;;;;;;4925025;29;19939;-81
2022/03/09 01:52:37;;;;;;;;;;;9.00;99.90;;;;;;4918536;29;19942;-82
2022/03/09 01:55:07;;;;;;;;;;;9.00;99.90;;;;;;4936336;29;19927;-82
2022/03/09 01:57:35;;;;;;;;;;;9.20;99.90;;;;;;4581412;29;9999871;-82
2022/03/09 02:00:04;;;;;;;;;;;8.90;99.90;;;;;;4923271;29;19931;-81
2022/03/09 02:02:35;;;;;;;;;;;9.20;99.90;;;;;;4909655;29;20498;-82
2022/03/09 02:05:04;;;;;;;;;;;9.00;99.90;;;;;;4893000;29;19927;-81
2022/03/09 02:10:22;;;;;;;;;;;9.00;99.90;;;;;;4920945;29;19927;-81
2022/03/09 02:12:51;;;;;;;;;;;9.00;99.90;;;;;;4927937;29;19927;-81
2022/03/09 02:15:19;;;;;;;;;;;9.10;99.90;;;;;;4905051;29;19928;-81
2022/03/09 02:17:47;;;;;;;;;;;9.10;99.90;;;;;;4906501;29;19935;-81
2022/03/09 02:20:15;;;;;;;;;;;9.10;99.90;;;;;;4923773;29;19928;-82
2022/03/09 02:22:44;;;;;;;;;;;9.30;99.90;;;;;;4895024;29;19938;-81
2022/03/09 02:25:15;;;;;;;;;;;9.10;99.90;;;;;;4943669;29;19964;-83
2022/03/09 02:27:43;;;;;;;;;;;9.20;99.90;;;;;;4914918;29;19928;-81
2022/03/09 02:30:17;;;;;;;;;;;9.10;99.90;;;;;;4931435;29;19927;-82
2022/03/09 02:32:47;;;;;;;;;;;9.20;99.90;;;;;;4914353;29;19935;-81
2022/03/09 02:35:15;;;;;;;;;;;9.20;99.90;;;;;;4931000;29;19933;-81
2022/03/09 02:37:44;;;;;;;;;;;9.20;99.90;;;;;;4927595;29;19946;-82
2022/03/09 02:40:13;;;;;;;;;;;9.20;99.90;;;;;;4901496;29;19927;-81
2022/03/09 02:42:42;;;;;;;;;;;9.20;99.90;;;;;;4928498;29;19937;-82
2022/03/09 02:45:11;;;;;;;;;;;9.10;99.90;;;;;;4933452;29;19934;-82
2022/03/09 02:47:40;;;;;;;;;;;9.10;99.90;;;;;;4933025;29;19931;-80
2022/03/09 02:50:13;;;;;;;;;;;9.10;99.90;;;;;;4933936;29;20512;-81
2022/03/09 02:52:42;;;;;;;;;;;9.30;99.90;;;;;;4935098;29;19934;-81
2022/03/09 02:55:12;;;;;;;;;;;9.20;99.90;;;;;;4934228;29;19927;-81
2022/03/09 02:57:40;;;;;;;;;;;9.20;99.90;;;;;;4931843;29;19927;-82
2022/03/09 03:00:09;;;;;;;;;;;9.20;99.90;;;;;;4918239;29;19930;-80
2022/03/09 03:02:39;;;;;;;;;;;9.30;99.90;;;;;;4944315;29;19947;-81
2022/03/09 03:05:07;;;;;;;;;;;9.10;99.90;;;;;;4898355;29;19931;-81
2022/03/09 03:07:36;;;;;;;;;;;9.20;99.90;;;;;;4908167;29;19927;-81
2022/03/09 03:10:04;;;;;;;;;;;9.30;99.90;;;;;;4913868;29;19928;-82
2022/03/09 03:12:34;;;;;;;;;;;9.30;99.90;;;;;;4935347;29;19934;-82
2022/03/09 03:15:04;;;;;;;;;;;9.30;99.90;;;;;;4935043;29;19927;-82
2022/03/09 03:17:36;;;;;;;;;;;9.40;99.90;;;;;;4925499;29;19933;-82
2022/03/09 03:20:05;;;;;;;;;;;9.40;99.90;;;;;;4932266;29;19927;-81
2022/03/09 03:22:33;;;;;;;;;;;9.60;99.90;;;;;;4931335;29;19938;-81
2022/03/09 03:25:02;;;;;;;;;;;9.40;99.90;;;;;;4925651;29;19928;-81
2022/03/09 03:27:31;;;;;;;;;;;9.40;99.90;;;;;;4918118;29;19938;-81
2022/03/09 03:29:59;;;;;;;;;;;9.40;99.90;;;;;;4914923;29;19927;-82
2022/03/09 03:32:27;;;;;;;;;;;9.40;99.90;;;;;;4930274;29;20560;-81
2022/03/09 03:34:55;;;;;;;;;;;9.40;99.90;;;;;;4929704;29;19927;-81
2022/03/09 03:37:23;;;;;;;;;;;9.40;99.90;;;;;;4923392;29;19927;-82
2022/03/09 03:39:53;;;;;;;;;;;9.40;99.90;;;;;;4916152;29;19935;-81
2022/03/09 03:42:22;;;;;;;;;;;9.40;99.90;;;;;;4930708;29;20297;-83
2022/03/09 03:44:50;;;;;;;;;;;9.40;99.90;;;;;;4914976;29;19950;-83
2022/03/09 03:47:18;;;;;;;;;;;9.30;99.90;;;;;;4924079;29;19935;-82
2022/03/09 03:49:46;;;;;;;;;;;9.40;99.90;;;;;;4914333;29;19933;-82
2022/03/09 03:52:14;;;;;;;;;;;9.60;99.90;;;;;;4930078;29;19933;-81
2022/03/09 03:54:42;;;;;;;;;;;9.30;99.90;;;;;;4930913;29;19935;-82
2022/03/09 03:57:10;;;;;;;;;;;9.30;99.90;;;;;;4933897;29;19934;-81
2022/03/09 03:59:39;;;;;;;;;;;9.00;99.90;;;;;;4939523;29;19935;-80
2022/03/09 04:02:07;;;;;;;;;;;9.30;99.90;;;;;;4930288;29;19934;-80
2022/03/09 04:04:35;;;;;;;;;;;9.30;99.90;;;;;;4932108;29;19927;-82
2022/03/09 04:07:03;;;;;;;;;;;9.30;99.90;;;;;;4915027;29;19942;-82
2022/03/09 04:09:31;;;;;;;;;;;9.30;99.90;;;;;;4927628;29;20392;-82
2022/03/09 04:12:02;;;;;;;;;;;9.40;99.90;;;;;;4938334;29;19931;-81
2022/03/09 04:14:30;;;;;;;;;;;9.30;99.90;;;;;;4914267;29;19927;-81
2022/03/09 04:16:58;;;;;;;;;;;9.30;99.90;;;;;;4930424;29;19935;-81
2022/03/09 04:19:26;;;;;;;;;;;9.30;99.90;;;;;;4915503;29;19927;-82
2022/03/09 04:21:54;;;;;;;;;;;9.40;99.90;;;;;;4930798;29;19927;-82
2022/03/09 04:24:22;;;;;;;;;;;9.30;99.90;;;;;;4914559;29;19927;-82
2022/03/09 04:26:50;;;;;;;;;;;9.30;99.90;;;;;;4946081;29;19934;-83
2022/03/09 04:29:19;;;;;;;;;;;9.40;99.90;;;;;;4910074;29;19931;-81
2022/03/09 04:31:47;;;;;;;;;;;9.20;99.90;;;;;;4930625;29;19927;-80
2022/03/09 04:34:15;;;;;;;;;;;9.10;99.90;;;;;;4926386;29;19942;-81
2022/03/09 04:36:43;;;;;;;;;;;9.10;99.90;;;;;;4916463;29;19937;-80
2022/03/09 04:39:12;;;;;;;;;;;9.10;99.90;;;;;;4931149;29;19927;-81
2022/03/09 04:41:40;;;;;;;;;;;9.10;99.90;;;;;;4930714;29;19942;-80
2022/03/09 04:44:11;;;;;;;;;;;9.00;99.90;;;;;;4914751;29;19933;-81
2022/03/09 04:46:40;;;;;;;;;;;9.10;99.90;;;;;;4911672;29;19934;-80
2022/03/09 04:49:09;;;;;;;;;;;9.10;99.90;;;;;;4926096;29;19932;-80
2022/03/09 04:51:37;;;;;;;;;;;9.10;99.90;;;;;;4910248;29;19927;-80
2022/03/09 04:54:05;;;;;;;;;;;9.20;99.90;;;;;;4911235;29;20531;-80
2022/03/09 04:56:33;;;;;;;;;;;9.20;99.90;;;;;;4921523;29;20450;-81
2022/03/09 04:59:03;;;;;;;;;;;9.20;99.90;;;;;;4910460;29;19934;-80
2022/03/09 05:01:31;;;;;;;;;;;9.20;99.90;;;;;;4924167;29;19930;-81
2022/03/09 05:03:59;;;;;;;;;;;9.20;99.90;;;;;;4930698;29;19938;-81
2022/03/09 05:06:28;;;;;;;;;;;9.30;99.90;;;;;;4929461;29;19927;-79
2022/03/09 05:08:57;;;;;;;;;;;9.30;99.90;;;;;;4926421;29;19927;-82
2022/03/09 05:11:25;;;;;;;;;;;9.30;99.90;;;;;;4906629;29;19927;-83
2022/03/09 05:13:53;;;;;;;;;;;9.30;99.90;;;;;;4923889;29;19931;-82
2022/03/09 05:16:22;;;;;;;;;;;9.30;99.90;;;;;;4914489;29;19934;-81
2022/03/09 05:18:50;;;;;;;;;;;9.30;99.90;;;;;;4912592;29;19933;-80
2022/03/09 05:21:19;;;;;;;;;;;9.20;99.90;;;;;;4911114;29;20404;-81
2022/03/09 05:23:48;;;;;;;;;;;9.10;99.90;;;;;;4911302;29;19934;-80
2022/03/09 05:26:15;;;;;;;;;;;7.60;99.90;;;;;;4919541;29;19927;-82
2022/03/09 05:28:43;;;;;;;;;;;9.00;99.90;;;;;;4930233;29;19927;-81
2022/03/09 05:31:11;;;;;;;;;;;9.40;99.90;;;;;;4915675;29;19932;-81
2022/03/09 05:33:40;;;;;;;;;;;9.20;99.90;;;;;;4910926;29;19938;-81
2022/03/09 05:36:08;;;;;;;;;;;8.90;99.90;;;;;;4909565;29;19935;-81
2022/03/09 05:38:36;;;;;;;;;;;8.20;99.90;;;;;;4909128;29;19927;-81
2022/03/09 05:41:04;;;;;;;;;;;9.00;99.90;;;;;;4928610;29;19927;-81
2022/03/09 05:43:32;;;;;;;;;;;8.60;99.90;;;;;;4948346;29;19927;-80
2022/03/09 05:46:03;;;;;;;;;;;9.20;99.90;;;;;;4947165;29;19927;-80
2022/03/09 05:48:31;;;;;;;;;;;9.10;99.90;;;;;;4928281;29;19933;-81
2022/03/09 05:51:00;;;;;;;;;;;8.20;99.90;;;;;;4925731;29;19931;-80
2022/03/09 05:53:28;;;;;;;;;;;9.20;99.90;;;;;;4928316;29;19931;-80
2022/03/09 05:55:56;;;;;;;;;;;9.20;99.90;;;;;;4914652;29;19938;-82
2022/03/09 05:58:25;;;;;;;;;;;9.20;99.90;;;;;;4907368;29;19943;-82
2022/03/09 06:00:53;;;;;;;;;;;9.30;99.90;;;;;;4918146;29;19939;-82
2022/03/09 06:03:21;;;;;;;;;;;9.20;99.90;;;;;;4927899;29;19931;-81
2022/03/09 06:05:50;;;;;;;;;;;9.20;99.90;;;;;;4927317;29;19938;-81
2022/03/09 06:08:18;;;;;;;;;;;9.30;99.90;;;;;;4926665;29;19931;-82
2022/03/09 06:10:50;;;;;;;;;;;9.30;99.90;;;;;;4911290;29;20000;-81
2022/03/09 06:13:20;;;;;;;;;;;9.30;99.90;;;;;;4930095;29;19938;-81
2022/03/09 06:15:51;;;;;;;;;;;9.30;99.90;;;;;;4913108;29;19934;-81
2022/03/09 06:18:19;;;;;;;;;;;9.30;99.90;;;;;;4926954;29;19931;-80
2022/03/09 06:20:48;;;;;;;;;;;9.30;99.90;;;;;;4909261;29;19944;-81
2022/03/09 06:23:16;;;;;;;;;;;9.30;99.90;;;;;;4891773;29;19927;-81
2022/03/09 06:25:45;;;;;;;;;;;8.40;99.90;;;;;;4923211;29;19934;-81
2022/03/09 06:28:14;;;;;;;;;;;9.30;99.90;;;;;;4913079;29;19931;-81
2022/03/09 06:30:44;;;;;;;;;;;9.40;99.90;;;;;;4927515;29;19934;-82
2022/03/09 06:33:12;;;;;;;;;;;9.30;99.90;;;;;;4927924;29;19933;-80
2022/03/09 06:35:40;;;;;;;;;;;9.40;99.90;;;;;;4924535;29;19931;-80
2022/03/09 06:38:13;;;;;;;;;;;9.40;99.90;;;;;;4928162;29;19931;-81
2022/03/09 06:40:41;;;;;;;;;;;9.40;99.90;;;;;;4930580;29;19935;-80
2022/03/09 06:43:09;;;;;;;;;;;9.40;99.90;;;;;;4902569;29;19935;-81
2022/03/09 06:45:40;;;;;;;;;;;9.50;99.90;;;;;;4631896;29;10000353;-81
2022/03/09 06:48:09;;;;;;;;;;;9.40;99.90;;;;;;4913048;29;19935;-81
2022/03/09 06:50:39;;;;;;;;;;;10.60;99.90;;;;;;4913118;29;19934;-81
2022/03/09 06:53:08;;;;;;;;;;;9.40;99.90;;;;;;4941664;29;19931;-81
2022/03/09 06:55:36;;;;;;;;;;;9.60;99.90;;;;;;4925825;29;19927;-81
2022/03/09 06:58:05;;;;;;;;;;;8.70;99.90;;;;;;4925800;29;20236;-82
2022/03/09 07:00:33;;;;;;;;;;;9.70;99.90;;;;;;4908666;29;19931;-82
2022/03/09 07:03:02;;;;;;;;;;;9.40;99.90;;;;;;4925214;29;19938;-83
2022/03/09 07:05:31;;;;;;;;;;;9.40;99.90;;;;;;4925945;29;19927;-81
2022/03/09 07:08:00;;;;;;;;;;;9.60;99.90;;;;;;4927994;29;19937;-83
2022/03/09 07:10:28;;;;;;;;;;;9.50;99.90;;;;;;4913801;29;19933;-81
2022/03/09 07:12:57;;;;;;;;;;;9.40;99.90;;;;;;4928403;29;19931;-80
2022/03/09 07:15:31;;;;;;;;;;;9.50;99.90;;;;;;4929378;29;19927;-81
2022/03/09 07:17:59;;;;;;;;;;;9.40;99.90;;;;;;4912179;29;19928;-80
2022/03/09 07:20:30;;;;;;;;;;;9.50;99.90;;;;;;4927587;29;19927;-80
2022/03/09 07:23:06;;;;;;;;;;;9.50;99.90;;;;;;4928042;29;19937;-80
2022/03/09 07:25:44;;;;;;;;;;;9.50;99.90;;;;;;4926967;29;19927;-82
2022/03/09 07:28:19;;;;;;;;;;;9.50;99.90;;;;;;4926019;29;19927;-81
2022/03/09 07:30:47;;;;;;;;;;;9.50;99.90;;;;;;4926919;29;19942;-81
2022/03/09 07:33:16;;;;;;;;;;;9.50;99.90;;;;;;4926027;29;20296;-82
2022/03/09 07:35:45;;;;;;;;;;;9.50;99.90;;;;;;4924250;29;19931;-80
2022/03/09 07:38:14;;;;;;;;;;;9.70;99.90;;;;;;4924364;29;19931;-81
2022/03/09 07:40:42;;;;;;;;;;;9.70;99.90;;;;;;4928909;29;19937;-81
2022/03/09 07:43:10;;;;;;;;;;;9.70;99.90;;;;;;4923306;29;19931;-82
2022/03/09 07:45:45;;;;;;;;;;;9.70;99.90;;;;;;4928430;29;19934;-84
2022/03/09 07:48:14;;;;;;;;;;;9.60;99.90;;;;;;4925058;29;19931;-81
2022/03/09 07:50:53;;;;;;;;;;;9.80;99.90;;;;;;4916856;29;19946;-83
2022/03/09 07:53:23;;;;;;;;;;;9.90;99.90;;;;;;4895110;29;19931;-83
2022/03/09 07:56:03;;;;;;;;;;;10.00;99.90;;;;;;4922419;29;19931;-82
2022/03/09 07:58:32;;;;;;;;;;;9.80;99.90;;;;;;4925465;29;19935;-85
2022/03/09 08:01:00;;;;;;;;;;;10.30;99.90;;;;;;4940517;29;19927;-83
2022/03/09 08:03:30;;;;;;;;;;;9.00;99.90;;;;;;4929266;29;19931;-83
2022/03/09 08:06:03;;;;;;;;;;;10.70;99.90;;;;;;4929331;29;19942;-83
2022/03/09 08:08:35;;;;;;;;;;;10.10;99.90;;;;;;4940926;23;19927;-86
2022/03/09 08:11:12;;;;;;;;;;;9.40;99.90;;;;;;4939865;29;19934;-84
2022/03/09 08:13:57;;;;;;;;;;;10.20;99.90;;;;;;4932497;29;19926;-86
2022/03/09 08:16:26;;;;;;;;;;;10.20;99.90;;;;;;4929101;29;19934;-86
2022/03/09 08:18:54;;;;;;;;;;;10.30;99.90;;;;;;4940910;29;19934;-88
2022/03/09 08:21:34;;;;;;;;;;;10.30;99.90;;;;;;4911035;29;20635;-87
2022/03/09 08:24:03;;;;;;;;;;;10.30;99.90;;;;;;4922828;29;19931;-85
2022/03/09 08:26:33;;;;;;;;;;;10.40;99.90;;;;;;4937586;29;20010;-85
2022/03/09 08:29:02;;;;;;;;;;;10.50;99.90;;;;;;4921450;29;19934;-84
2022/03/09 08:31:29;;;;;;;;;;;10.50;99.90;;;;;;4932473;29;19933;-85
2022/03/09 08:33:58;;;;;;;;;;;10.60;99.90;;;;;;4939291;29;19934;-85
2022/03/09 08:36:27;;;;;;;;;;;10.50;99.90;;;;;;4941113;29;19938;-85
2022/03/09 08:38:55;;;;;;;;;;;10.60;99.90;;;;;;4938909;29;19935;-85
2022/03/09 08:41:28;;;;;;;;;;;10.70;99.90;;;;;;4939341;29;19927;-87
2022/03/09 08:43:56;;;;;;;;;;;10.70;99.90;;;;;;4941240;29;19926;-86
2022/03/09 08:46:24;;;;;;;;;;;10.70;99.90;;;;;;4940112;29;19937;-84
2022/03/09 08:48:53;;;;;;;;;;;10.80;99.90;;;;;;4939899;29;19930;-85
2022/03/09 08:51:22;;;;;;;;;;;10.80;99.90;;;;;;4939671;29;20383;-86
2022/03/09 08:53:58;;;;;;;;;;;10.80;99.90;;;;;;4938749;29;19942;-87
2022/03/09 08:56:29;;;;;;;;;;;10.90;99.90;;;;;;4940118;29;19926;-85
2022/03/09 08:58:57;;;;;;;;;;;11.00;99.90;;;;;;4923448;29;19966;-85
2022/03/09 09:01:25;;;;;;;;;;;10.70;99.90;;;;;;4931533;29;19935;-85
2022/03/09 09:04:14;;;;;;;;;;;10.90;99.90;;;;;;4933159;29;19950;-86
2022/03/09 09:06:43;;;;;;;;;;;10.90;99.90;;;;;;4925632;29;19926;-86
2022/03/09 09:09:11;;;;;;;;;;;10.90;99.90;;;;;;4949002;29;19927;-86
2022/03/09 09:11:39;;;;;;;;;;;10.90;99.90;;;;;;4941214;29;19931;-86
2022/03/09 09:14:07;;;;;;;;;;;10.90;99.90;;;;;;4933026;29;19927;-87
2022/03/09 09:16:38;;;;;;;;;;;11.00;99.90;;;;;;4926365;29;20038;-87
2022/03/09 09:19:12;;;;;;;;;;;11.00;99.90;;;;;;4922875;29;21152;-86
2022/03/09 09:21:45;;;;;;;;;;;11.10;99.90;;;;;;4928223;29;19957;-86
2022/03/09 09:24:13;;;;;;;;;;;11.10;99.90;;;;;;4921963;29;20259;-86
2022/03/09 09:26:45;;;;;;;;;;;11.10;99.90;;;;;;4921140;29;19938;-86
2022/03/09 09:29:29;;;;;;;;;;;11.20;99.90;;;;;;4949556;29;19932;-87
2022/03/09 09:31:58;;;;;;;;;;;11.20;99.90;;;;;;4925910;29;19930;-85
2022/03/09 09:34:27;;;;;;;;;;;12.40;99.90;;;;;;4930033;29;19931;-87
2022/03/09 09:37:06;;;;;;;;;;;11.20;99.90;;;;;;4933173;29;19933;-86
2022/03/09 09:39:34;;;;;;;;;;;11.30;99.90;;;;;;4930937;29;19933;-86
2022/03/09 09:42:04;;;;;;;;;;;13.20;99.90;;;;;;4946708;29;19934;-87
2022/03/09 09:44:34;;;;;;;;;;;11.30;99.90;;;;;;4912532;29;20202;-86
2022/03/09 09:47:04;;;;;;;;;;;11.50;99.90;;;;;;4950518;29;19931;-87
2022/03/09 09:49:37;;;;;;;;;;;11.50;99.90;;;;;;4956419;29;19933;-85
2022/03/09 09:52:36;;;;;;;;;;;11.50;99.90;;;;;;4938176;29;19933;-87
2022/03/09 09:55:04;;;;;;;;;;;11.50;99.90;;;;;;4911491;29;19918;-86
2022/03/09 09:57:34;;;;;;;;;;;11.40;99.90;;;;;;4952695;29;19937;-85
2022/03/09 10:00:06;;;;;;;;;;;11.40;99.90;;;;;;4930303;29;19934;-85
2022/03/09 10:02:56;;;;;;;;;;;11.40;99.90;;;;;;4901537;29;19931;-87
2022/03/09 10:05:24;;;;;;;;;;;11.40;99.90;;;;;;4920417;29;19927;-85
2022/03/09 10:08:08;;;;;;;;;;;11.40;99.90;;;;;;4902575;29;19931;-87
2022/03/09 10:10:44;;;;;;;;;;;11.40;99.90;;;;;;4911895;29;19947;-85
2022/03/09 10:13:21;;;;;;;;;;;11.50;99.90;;;;;;4890977;29;19931;-86
2022/03/09 10:16:08;;;;;;;;;;;11.60;99.90;;;;;;4885608;29;20043;-87
2022/03/09 10:18:53;;;;;;;;;;;11.70;99.90;;;;;;4897219;29;19931;-87
2022/03/09 10:21:28;;;;;;;;;;;11.80;99.90;;;;;;4894416;29;19938;-86
2022/03/09 10:24:28;;;;;;;;;;;12.20;99.90;;;;;;4919666;29;20304;-92
2022/03/09 10:26:56;;;;;;;;;;;11.90;99.90;;;;;;4909123;29;19938;-88
2022/03/09 10:29:30;;;;;;;;;;;12.10;99.90;;;;;;4891618;29;19927;-88
2022/03/09 10:32:01;;;;;;;;;;;12.10;99.90;;;;;;4920672;29;19967;-87
2022/03/09 10:34:35;;;;;;;;;;;12.20;99.90;;;;;;4912681;29;20449;-86
2022/03/09 10:37:04;;;;;;;;;;;12.30;99.90;;;;;;4924036;29;19931;-88
2022/03/09 10:39:34;;;;;;;;;;;12.40;99.90;;;;;;4928921;29;19927;-89
2022/03/09 10:42:23;;;;;;;;;;;12.50;99.90;;;;;;4916201;29;20330;-90
2022/03/09 10:45:03;;;;;;;;;;;12.60;99.90;;;;;;4937810;29;20291;-90
2022/03/09 10:47:49;;;;;;;;;;;12.70;99.90;;;;;;4936563;29;19926;-91
2022/03/09 10:50:28;;;;;;;;;;;13.10;99.90;;;;;;4953904;29;19941;-90
2022/03/09 10:53:16;;;;;;;;;;;11.60;99.90;;;;;;4946019;29;19926;-91
2022/03/09 10:56:03;;;;;;;;;;;13.00;99.90;;;;;;4946135;29;19911;-90
2022/03/09 10:58:45;;;;;;;;;;;13.10;99.90;;;;;;4955236;29;19915;-90
2022/03/09 11:02:08;;;;;;;;;;;13.30;99.90;;;;;;4959956;29;19941;-92
2022/03/09 11:08:15;;;;;;;;;;;13.10;99.90;;;;;;4942181;28;19961;-82
2022/03/09 11:11:14;;;;;;;;;;;12.10;99.90;;;;;;4930035;29;19927;-82
2022/03/09 11:13:42;;;;;;;;;;;12.80;99.90;;;;;;4953883;29;19942;-81
2022/03/09 11:16:31;;;;;;;;;;;12.70;99.90;;;;;;4945666;29;19926;-82
2022/03/09 11:19:01;;;;;;;;;;;12.80;99.90;;;;;;4946952;29;19931;-82
2022/03/09 11:21:31;;;;;;;;;;;12.70;99.90;;;;;;4947946;29;19927;-84
2022/03/09 11:27:09;;;;;;;;;;;12.90;99.90;;;;;;4944035;29;19931;-82
2022/03/09 11:29:49;;;;;;;;;;;13.10;99.90;;;;;;4944983;29;19931;-83
2022/03/09 11:32:44;;;;;;;;;;;13.30;99.90;;;;;;4943289;29;19926;-81
2022/03/09 11:36:23;;;;;;;;;;;13.10;99.90;;;;;;4934500;29;19951;-82
2022/03/09 11:39:03;;;;;;;;;;;12.60;99.90;;;;;;4942651;29;19915;-81
2022/03/09 11:41:53;;;;;;;;;;;13.10;99.90;;;;;;4948050;29;19935;-83
2022/03/09 11:44:38;;;;;;;;;;;13.20;99.90;;;;;;4940256;28;20123;-83
2022/03/09 11:47:56;;;;;;;;;;;13.30;99.90;;;;;;4947477;28;19934;-82
2022/03/09 11:50:25;;;;;;;;;;;13.10;99.90;;;;;;4932961;29;19937;-81
2022/03/09 11:52:59;;;;;;;;;;;13.30;99.90;;;;;;4931827;29;19937;-86
2022/03/09 11:55:27;;;;;;;;;;;13.30;99.90;;;;;;4951651;29;19933;-83
2022/03/09 11:57:55;;;;;;;;;;;13.30;99.90;;;;;;4933342;29;19927;-83
2022/03/09 12:00:23;;;;;;;;;;;13.40;99.90;;;;;;4933731;29;20343;-83
2022/03/09 12:02:57;;;;;;;;;;;13.50;99.90;;;;;;4944465;29;19927;-82
2022/03/09 12:05:34;;;;;;;;;;;13.60;99.90;;;;;;4933638;29;19927;-85
2022/03/09 12:08:14;;;;;;;;;;;13.60;99.90;;;;;;4959233;29;19927;-85
2022/03/09 12:10:51;;;;;;;;;;;13.80;99.90;;;;;;4950368;29;19930;-81
2022/03/09 12:13:19;;;;;;;;;;;13.80;99.90;;;;;;4931479;29;19934;-84
2022/03/09 12:16:14;;;;;;;;;;;13.40;99.90;;;;;;4947813;29;19931;-85
2022/03/09 12:18:47;;;;;;;;;;;13.60;99.90;;;;;;4930480;29;19937;-84
2022/03/09 12:21:18;;;;;;;;;;;13.70;99.90;;;;;;4943511;29;19911;-85
2022/03/09 12:23:59;;;;;;;;;;;12.60;99.90;;;;;;4934786;29;19939;-84
2022/03/09 12:26:37;;;;;;;;;;;13.60;99.90;;;;;;4948059;29;19933;-82
2022/03/09 12:29:24;;;;;;;;;;;13.00;99.90;;;;;;4940170;29;19931;-82
2022/03/09 12:31:58;;;;;;;;;;;13.50;99.90;;;;;;4949097;29;19929;-82
2022/03/09 12:34:28;;;;;;;;;;;13.30;99.90;;;;;;4957659;29;19937;-81
2022/03/09 12:36:56;;;;;;;;;;;13.40;99.90;;;;;;4929888;29;19937;-82
2022/03/09 12:39:26;;;;;;;;;;;13.60;99.90;;;;;;4937106;29;19935;-83
2022/03/09 12:41:55;;;;;;;;;;;13.40;99.90;;;;;;4904832;29;19954;-83
2022/03/09 12:44:24;;;;;;;;;;;13.50;99.90;;;;;;4942176;29;19934;-82
2022/03/09 12:47:01;;;;;;;;;;;13.50;99.90;;;;;;4943430;29;19927;-83
2022/03/09 12:49:31;;;;;;;;;;;13.50;99.90;;;;;;4946336;29;19938;-81
2022/03/09 12:52:03;;;;;;;;;;;13.40;99.90;;;;;;4943532;29;19931;-83
2022/03/09 12:54:36;;;;;;;;;;;13.50;99.90;;;;;;4913065;29;20331;-82
2022/03/09 12:57:06;;;;;;;;;;;13.50;99.90;;;;;;4916814;29;19938;-82
2022/03/09 12:59:40;;;;;;;;;;;13.60;99.90;;;;;;4912791;29;19931;-85
2022/03/09 13:02:08;;;;;;;;;;;13.60;99.90;;;;;;4920663;29;19935;-81
2022/03/09 13:04:37;;;;;;;;;;;13.70;99.90;;;;;;4936606;29;20518;-82
2022/03/09 13:07:24;;;;;;;;;;;13.60;99.90;;;;;;4920358;29;19942;-82
2022/03/09 13:10:04;;;;;;;;;;;13.60;99.90;;;;;;4938161;29;19927;-82
2022/03/09 13:12:32;;;;;;;;;;;13.50;99.90;;;;;;4943710;29;19935;-81
2022/03/09 13:15:05;;;;;;;;;;;13.40;99.90;;;;;;4941937;29;19942;-82
2022/03/09 13:17:42;;;;;;;;;;;13.20;99.90;;;;;;4939658;29;19938;-83
2022/03/09 13:20:13;;;;;;;;;;;13.00;99.90;;;;;;4941001;29;19935;-84
2022/03/09 13:22:44;;;;;;;;;;;12.90;99.90;;;;;;4928811;29;19931;-83
2022/03/09 13:25:13;;;;;;;;;;;12.80;99.90;;;;;;4955394;29;19937;-82
2022/03/09 13:27:42;;;;;;;;;;;12.80;99.90;;;;;;4941871;29;20103;-82
2022/03/09 13:30:14;;;;;;;;;;;12.80;99.90;;;;;;4922706;29;19934;-82
2022/03/09 13:32:42;;;;;;;;;;;12.60;99.90;;;;;;4942516;29;19927;-82
2022/03/09 13:35:21;;;;;;;;;;;12.80;99.90;;;;;;4927732;29;19941;-83
2022/03/09 13:37:59;;;;;;;;;;;12.30;99.90;;;;;;4942785;29;19934;-82
2022/03/09 13:40:28;;;;;;;;;;;12.30;99.90;;;;;;4923565;29;20804;-82
2022/03/09 13:42:57;;;;;;;;;;;12.20;99.90;;;;;;4938243;29;19935;-80
2022/03/09 13:45:29;;;;;;;;;;;12.20;99.90;;;;;;4926960;29;19927;-83
2022/03/09 13:47:58;;;;;;;;;;;12.20;99.90;;;;;;4929526;29;19927;-82
2022/03/09 13:50:30;;;;;;;;;;;12.20;99.90;;;;;;4939471;29;19945;-81
2022/03/09 13:53:08;;;;;;;;;;;12.20;99.90;;;;;;4928484;29;19937;-81
2022/03/09 13:55:42;;;;;;;;;;;12.10;99.90;;;;;;4942782;29;19941;-82
2022/03/09 13:58:11;;;;;;;;;;;11.50;99.90;;;;;;4941845;29;19931;-83
2022/03/09 14:00:40;;;;;;;;;;;12.40;99.90;;;;;;4929817;29;20352;-82
2022/03/09 14:03:09;;;;;;;;;;;12.20;99.90;;;;;;4927177;29;19928;-82
2022/03/09 14:05:45;;;;;;;;;;;12.40;99.90;;;;;;4926124;29;19931;-82
2022/03/09 14:08:29;;;;;;;;;;;12.40;99.90;;;;;;4940843;29;19928;-82
2022/03/09 14:11:08;;;;;;;;;;;12.50;99.90;;;;;;4924445;29;19934;-81
2022/03/09 14:13:54;;;;;;;;;;;10.80;99.90;;;;;;4925394;29;19927;-81
2022/03/09 14:16:22;;;;;;;;;;;12.80;99.90;;;;;;4927051;29;19938;-84
2022/03/09 14:18:50;;;;;;;;;;;12.60;99.90;;;;;;4947263;29;19931;-84
2022/03/09 14:21:20;;;;;;;;;;;12.70;99.90;;;;;;4946550;29;19950;-85
2022/03/09 14:23:54;;;;;;;;;;;12.80;99.90;;;;;;4950470;29;19930;-84
2022/03/09 14:26:21;;;;;;;;;;;13.00;99.90;;;;;;4951445;29;19934;-83
2022/03/09 14:28:49;;;;;;;;;;;13.20;99.90;;;;;;4941961;29;19934;-83
2022/03/09 14:31:18;;;;;;;;;;;13.40;99.90;;;;;;4950232;29;20376;-83
2022/03/09 14:33:47;;;;;;;;;;;13.50;99.90;;;;;;4931602;29;20311;-84
2022/03/09 14:36:16;;;;;;;;;;;13.60;99.90;;;;;;4950759;29;20195;-83
2022/03/09 14:38:44;;;;;;;;;;;13.60;99.90;;;;;;4930621;29;19934;-84
2022/03/09 14:41:15;;;;;;;;;;;13.70;99.90;;;;;;4936992;29;19938;-83
2022/03/09 14:43:47;;;;;;;;;;;13.70;99.90;;;;;;4937795;29;20328;-81
2022/03/09 14:46:19;;;;;;;;;;;13.60;99.90;;;;;;4932630;29;19937;-83
2022/03/09 14:48:59;;;;;;;;;;;13.40;99.90;;;;;;4967791;29;19931;-86
2022/03/09 14:51:27;;;;;;;;;;;13.60;99.90;;;;;;4951853;29;19927;-83
2022/03/09 14:53:55;;;;;;;;;;;14.00;99.90;;;;;;4965116;29;19938;-84
2022/03/09 14:56:23;;;;;;;;;;;14.10;99.90;;;;;;4952760;29;19927;-82
2022/03/09 14:58:56;;;;;;;;;;;14.80;99.70;;;;;;4949141;29;19926;-83